Terminal Aerodrome Forecast
Issued by NWS Wichita, KS

Home | Current Version | Previous Version | Text Only | Print | Product List | Glossary On
Versions: 1 2 3 4 5 6 7 8 9 10 11 12 13 14 15 16 17 18 19 20 21 22 23 24
000
FTUS43 KICT 200736 AAC
TAFICT
TAF AMD
KICT 200736Z 2008/2106 32008KT P6SM BKN005 OVC010
      TEMPO 2008/2010 FEW005 SCT010 BKN100
     FM201000 01014KT P6SM SCT025 BKN100=

USA.gov is the U.S. government's official web portal to all federal, state and local government web resources and services.